New London, Wisconsin
Current Conditions -  °F | °C
As of 8:55 PM on Friday 21 Nov 2014 (Local Time) from KPCZ Reporting Station
Overcast Overcast  
Wind Chill: -6°   Ceiling: 2000
Heat Index: -1°   Visibility: 10mi
Dew Point: -12°   Wind: 10mph
Humidity: 46%   Direction: 180°S
Pressure: 30.08"   Gusts: NA
Location:  44.39°N, 88.74°W
Report Text: KPCZ 220255Z AUTO 18009KT 10SM OVC020 M01/M12 A3008 RMK AO2 T10141117
Loading
Personal Weather Stations






























Interactive Weather Map New forecast layout! Learn more

10-Day Weather Forecast

Advertisements
Track Severe Weather on mobile